createdAt,value
2023-02-05T00:01:45.949Z,91.10
2023-02-05T00:04:12.705Z,91.60
2023-02-05T00:06:39.445Z,91.30
2023-02-05T00:09:06.220Z,91.30
2023-02-05T00:11:33.031Z,91.50
2023-02-05T00:13:59.822Z,91.70
2023-02-05T00:16:26.750Z,91.30
2023-02-05T00:18:54.048Z,91.30
2023-02-05T00:21:23.087Z,91.10
2023-02-05T00:23:50.000Z,91.30
2023-02-05T00:26:16.931Z,91.10
2023-02-05T00:28:44.130Z,91.10
2023-02-05T00:31:14.617Z,90.90
2023-02-05T00:33:41.697Z,90.70
2023-02-05T00:36:10.462Z,90.80
2023-02-05T00:38:38.146Z,90.70
2023-02-05T00:41:05.192Z,90.80
2023-02-05T00:43:32.103Z,90.60
2023-02-05T00:45:58.972Z,90.60
2023-02-05T00:48:25.727Z,90.40
2023-02-05T00:50:53.200Z,90.70
2023-02-05T00:53:21.170Z,91.00
2023-02-05T00:55:47.923Z,91.10
2023-02-05T00:58:14.786Z,90.50
2023-02-05T01:00:41.809Z,90.60
2023-02-05T01:03:08.912Z,90.60
2023-02-05T01:05:36.716Z,90.70
2023-02-05T01:08:07.267Z,90.90
2023-02-05T01:10:34.417Z,91.20
2023-02-05T01:13:01.202Z,91.20
2023-02-05T01:15:27.942Z,91.10
2023-02-05T01:17:54.719Z,91.00
2023-02-05T01:20:21.791Z,90.80
2023-02-05T01:22:49.305Z,90.80
2023-02-05T01:25:17.323Z,91.00
2023-02-05T01:27:44.490Z,91.20
2023-02-05T01:30:11.896Z,91.10
2023-02-05T01:32:39.098Z,91.10
2023-02-05T01:35:06.195Z,91.00
2023-02-05T01:37:32.937Z,91.10
2023-02-05T01:39:59.854Z,91.20
2023-02-05T01:42:29.602Z,91.10
2023-02-05T01:45:21.283Z,91.00
2023-02-05T01:47:52.210Z,90.90
2023-02-05T01:50:26.369Z,90.60
2023-02-05T01:52:54.676Z,90.70
2023-02-05T01:55:21.848Z,90.70
2023-02-05T01:57:50.457Z,90.40
2023-02-05T02:00:17.511Z,90.60
2023-02-05T02:02:44.792Z,90.70
2023-02-05T02:05:17.053Z,90.50
2023-02-05T02:07:43.836Z,90.60
2023-02-05T02:10:14.644Z,90.80
2023-02-05T02:12:45.086Z,90.50
2023-02-05T02:15:25.570Z,90.40
2023-02-05T02:18:22.196Z,90.40
2023-02-05T02:21:12.413Z,90.30
2023-02-05T02:23:58.897Z,90.50
2023-02-05T02:27:00.431Z,90.40
2023-02-05T02:29:44.443Z,90.40
2023-02-05T02:32:27.424Z,90.30
2023-02-05T02:35:04.386Z,90.20
2023-02-05T02:37:48.663Z,90.30
2023-02-05T02:40:26.123Z,90.20
2023-02-05T02:43:08.749Z,90.10
2023-02-05T02:45:41.831Z,89.90
2023-02-05T02:48:08.597Z,90.10
2023-02-05T02:50:40.867Z,90.30
2023-02-05T02:53:19.098Z,90.10
2023-02-05T02:55:47.704Z,90.30
2023-02-05T02:58:23.216Z,90.30
2023-02-05T03:00:51.550Z,90.20
2023-02-05T03:03:22.026Z,90.20
2023-02-05T03:05:52.040Z,90.20
2023-02-05T03:08:25.103Z,90.20
2023-02-05T03:11:13.262Z,90.10
2023-02-05T03:13:41.139Z,90.00
2023-02-05T03:16:08.279Z,90.20
2023-02-05T03:18:35.751Z,89.90
2023-02-05T03:21:08.374Z,89.90
2023-02-05T03:23:35.704Z,89.90
2023-02-05T03:26:02.485Z,90.10
2023-02-05T03:28:29.511Z,90.40
2023-02-05T03:31:11.074Z,90.30
2023-02-05T03:34:04.876Z,90.30
2023-02-05T03:37:05.774Z,90.40
2023-02-05T03:39:51.993Z,90.20
2023-02-05T03:42:33.873Z,90.10
2023-02-05T03:45:21.889Z,90.40
2023-02-05T03:48:28.272Z,90.30
2023-02-05T03:51:03.957Z,90.20
2023-02-05T03:53:45.564Z,90.10
2023-02-05T03:56:24.233Z,89.90
2023-02-05T03:58:54.824Z,90.20
2023-02-05T04:01:22.278Z,90.10
2023-02-05T04:03:49.337Z,89.50
2023-02-05T04:06:16.090Z,89.50
2023-02-05T04:08:44.119Z,89.60
2023-02-05T04:11:12.591Z,89.80
2023-02-05T04:13:39.322Z,90.20
2023-02-05T04:16:06.130Z,90.30
2023-02-05T04:18:32.892Z,90.30
2023-02-05T04:21:00.470Z,90.10
2023-02-05T04:23:27.319Z,90.00
2023-02-05T04:25:55.143Z,90.20
2023-02-05T04:28:22.087Z,90.50
2023-02-05T04:30:48.827Z,90.60
2023-02-05T04:33:15.605Z,90.60
2023-02-05T04:35:42.497Z,90.60
2023-02-05T04:38:09.237Z,90.70
2023-02-05T04:40:36.080Z,90.80
2023-02-05T04:43:03.114Z,90.80
2023-02-05T04:45:31.190Z,90.60
2023-02-05T04:47:59.565Z,90.70
2023-02-05T04:50:26.904Z,90.80
2023-02-05T04:52:53.698Z,90.80
2023-02-05T04:55:23.860Z,90.50
2023-02-05T04:57:52.580Z,90.10
2023-02-05T05:00:19.691Z,90.00
2023-02-05T05:02:46.485Z,90.10
2023-02-05T05:05:13.339Z,90.40
2023-02-05T05:07:40.102Z,90.70
2023-02-05T05:10:08.072Z,90.60
2023-02-05T05:12:38.505Z,90.30
2023-02-05T05:15:07.253Z,89.70
2023-02-05T05:17:35.178Z,89.50
2023-02-05T05:20:02.475Z,89.70
2023-02-05T05:22:29.985Z,89.70
2023-02-05T05:24:56.739Z,89.80
2023-02-05T05:27:24.278Z,89.90
2023-02-05T05:29:51.056Z,89.90
2023-02-05T05:32:17.834Z,90.00
2023-02-05T05:34:44.692Z,90.10
2023-02-05T05:37:11.521Z,90.10
2023-02-05T05:39:56.913Z,90.10
2023-02-05T05:42:42.368Z,90.30
2023-02-05T05:45:09.257Z,89.90
2023-02-05T05:47:36.027Z,89.70
2023-02-05T05:50:03.401Z,89.70
2023-02-05T05:52:32.378Z,89.90
2023-02-05T05:54:59.500Z,89.70
2023-02-05T05:57:26.389Z,89.50
2023-02-05T05:59:53.163Z,89.00
2023-02-05T06:02:19.973Z,88.90
2023-02-05T06:04:46.895Z,89.20
2023-02-05T06:07:13.685Z,89.50
2023-02-05T06:09:40.496Z,89.70
2023-02-05T06:12:07.324Z,89.80
2023-02-05T06:14:34.202Z,90.10
2023-02-05T06:17:00.932Z,90.10
2023-02-05T06:19:27.762Z,90.10
2023-02-05T06:21:54.462Z,90.20
2023-02-05T06:24:21.237Z,90.00
2023-02-05T06:26:47.979Z,89.30
2023-02-05T06:29:14.745Z,89.40
2023-02-05T06:31:41.583Z,89.70
2023-02-05T06:34:08.373Z,89.70
2023-02-05T06:36:35.119Z,89.90
2023-02-05T06:39:01.852Z,90.10
2023-02-05T06:41:28.769Z,90.30
2023-02-05T06:43:55.564Z,90.40
2023-02-05T06:46:22.349Z,90.20
2023-02-05T06:48:49.085Z,90.10
2023-02-05T06:51:15.819Z,90.20
2023-02-05T06:53:43.583Z,90.20
2023-02-05T06:56:10.376Z,90.10
2023-02-05T06:58:37.141Z,90.10
2023-02-05T07:01:04.036Z,90.00
2023-02-05T07:03:30.758Z,90.10
2023-02-05T07:06:05.061Z,90.20
2023-02-05T07:08:31.884Z,89.90
2023-02-05T07:10:59.204Z,89.80
2023-02-05T07:13:26.724Z,89.80
2023-02-05T07:15:53.542Z,89.30
2023-02-05T07:18:20.308Z,89.10
2023-02-05T07:20:48.125Z,89.20
2023-02-05T07:23:14.877Z,89.20
2023-02-05T07:25:41.662Z,89.30
2023-02-05T07:28:09.153Z,89.30
2023-02-05T07:30:36.284Z,89.40
2023-02-05T07:33:03.582Z,89.40
2023-02-05T07:35:32.047Z,89.10
2023-02-05T07:37:59.354Z,89.30
2023-02-05T07:40:26.400Z,89.30
2023-02-05T07:42:53.164Z,89.10
2023-02-05T07:45:19.950Z,89.20
2023-02-05T07:47:49.755Z,89.10
2023-02-05T07:50:17.537Z,89.20
2023-02-05T07:52:44.315Z,89.30
2023-02-05T07:55:11.054Z,89.60
2023-02-05T07:57:37.860Z,89.60
2023-02-05T08:00:05.102Z,89.50
2023-02-05T08:02:32.001Z,89.60
2023-02-05T08:04:58.734Z,89.80
2023-02-05T08:07:25.545Z,89.40
2023-02-05T08:09:52.266Z,89.80
2023-02-05T08:12:18.995Z,89.50
2023-02-05T08:14:46.186Z,89.10
2023-02-05T08:17:12.916Z,89.10
2023-02-05T08:19:40.200Z,89.20
2023-02-05T08:22:06.927Z,88.80
2023-02-05T08:24:33.872Z,88.70
2023-02-05T08:27:00.804Z,88.70
2023-02-05T08:29:27.578Z,88.90
2023-02-05T08:31:54.545Z,88.80
2023-02-05T08:34:21.279Z,88.80
2023-02-05T08:36:48.054Z,88.60
2023-02-05T08:39:14.778Z,88.10
2023-02-05T08:41:41.740Z,88.20
2023-02-05T08:44:08.562Z,87.70
2023-02-05T08:46:48.788Z,86.90
2023-02-05T08:49:16.996Z,87.00
2023-02-05T08:51:43.917Z,87.60
2023-02-05T08:54:13.072Z,87.60
2023-02-05T08:56:40.524Z,87.40
2023-02-05T08:59:08.982Z,87.40
2023-02-05T09:01:37.392Z,87.30
2023-02-05T09:04:05.100Z,87.30
2023-02-05T09:06:31.921Z,87.10
2023-02-05T09:08:58.798Z,86.90
2023-02-05T09:11:30.426Z,86.10
2023-02-05T09:13:58.030Z,86.70
2023-02-05T09:16:25.869Z,86.50
2023-02-05T09:18:57.188Z,85.70
2023-02-05T09:21:24.638Z,86.00
2023-02-05T09:23:52.391Z,87.00
2023-02-05T09:26:19.321Z,85.80
2023-02-05T09:28:46.189Z,85.10
2023-02-05T09:31:16.657Z,85.60
2023-02-05T09:33:46.343Z,85.80
2023-02-05T09:36:18.404Z,84.70
2023-02-05T09:38:46.338Z,86.20
2023-02-05T09:41:13.080Z,85.10
2023-02-05T09:43:59.980Z,84.80
2023-02-05T09:46:55.734Z,84.00
2023-02-05T09:49:33.481Z,83.50
2023-02-05T09:52:08.372Z,83.60
2023-02-05T09:54:41.899Z,83.70
2023-02-05T09:57:15.204Z,83.30
2023-02-05T09:59:44.245Z,83.30
2023-02-05T10:02:27.294Z,82.90
2023-02-05T10:05:01.477Z,82.90
2023-02-05T10:07:52.288Z,82.30
2023-02-05T10:10:25.255Z,83.20
2023-02-05T10:13:08.162Z,83.00
2023-02-05T10:16:23.269Z,80.80
2023-02-05T10:19:08.345Z,81.40
2023-02-05T10:22:15.092Z,80.10
2023-02-05T10:25:03.947Z,80.00
2023-02-05T10:27:57.289Z,79.50
2023-02-05T10:30:46.343Z,79.20
2023-02-05T10:33:39.725Z,78.50
2023-02-05T10:36:09.515Z,77.80
2023-02-05T10:38:42.311Z,77.90
2023-02-05T10:41:40.010Z,78.20
2023-02-05T10:44:29.134Z,77.60
2023-02-05T10:47:05.314Z,77.50
2023-02-05T10:49:50.173Z,78.10
2023-02-05T10:52:17.438Z,78.90
2023-02-05T10:54:46.181Z,79.10
2023-02-05T10:57:16.188Z,78.60
2023-02-05T10:59:59.411Z,77.80
2023-02-05T11:02:33.230Z,77.90
2023-02-05T11:05:06.101Z,77.10
2023-02-05T11:07:38.433Z,77.70
2023-02-05T11:10:20.497Z,77.50
2023-02-05T11:12:53.856Z,77.90
2023-02-05T11:15:27.732Z,77.20
2023-02-05T11:17:58.473Z,76.80
2023-02-05T11:20:29.627Z,77.10
2023-02-05T11:23:19.135Z,75.70
2023-02-05T11:26:00.956Z,76.00
2023-02-05T11:28:32.827Z,75.20
2023-02-05T11:31:25.798Z,75.30
2023-02-05T11:34:08.423Z,75.00
2023-02-05T11:36:38.400Z,73.50
2023-02-05T11:39:07.132Z,73.60
2023-02-05T11:41:48.609Z,73.80
2023-02-05T11:44:32.032Z,72.10
2023-02-05T11:47:01.719Z,72.50
2023-02-05T11:49:35.789Z,71.20
2023-02-05T11:52:10.230Z,69.80
2023-02-05T11:54:39.027Z,70.30
2023-02-05T11:57:18.052Z,71.00
2023-02-05T12:00:01.186Z,71.20
2023-02-05T12:02:30.775Z,67.40
2023-02-05T12:05:11.373Z,69.00
2023-02-05T12:08:00.042Z,67.90
2023-02-05T12:10:51.322Z,66.40
2023-02-05T12:13:55.044Z,66.60
2023-02-05T12:16:52.881Z,67.30
2023-02-05T12:19:31.222Z,64.20
2023-02-05T12:22:10.806Z,65.80
2023-02-05T12:25:16.664Z,64.70
2023-02-05T12:28:14.136Z,64.50
2023-02-05T12:30:58.049Z,64.40
2023-02-05T12:33:31.354Z,65.50
2023-02-05T12:36:18.293Z,63.80
2023-02-05T12:39:13.120Z,65.00
2023-02-05T12:41:56.606Z,64.80
2023-02-05T12:44:38.155Z,63.30
2023-02-05T12:47:47.514Z,62.60
2023-02-05T12:50:35.789Z,62.70
2023-02-05T12:53:09.017Z,64.40
2023-02-05T12:55:57.437Z,66.50
2023-02-05T12:58:34.978Z,64.50
2023-02-05T13:01:08.723Z,65.40
2023-02-05T13:03:42.269Z,68.50
2023-02-05T13:06:31.848Z,67.80
2023-02-05T13:09:22.852Z,67.10
2023-02-05T13:12:05.059Z,66.30
2023-02-05T13:15:01.954Z,65.00
2023-02-05T13:17:35.545Z,64.10
2023-02-05T13:20:06.276Z,65.80
2023-02-05T13:23:05.124Z,65.80
2023-02-05T13:25:56.399Z,65.50
2023-02-05T13:28:40.939Z,66.60
2023-02-05T13:31:28.074Z,64.40
2023-02-05T13:34:00.615Z,63.80
2023-02-05T13:36:58.474Z,62.30
2023-02-05T13:39:37.518Z,62.60
2023-02-05T13:42:31.728Z,61.60
2023-02-05T13:45:13.620Z,61.10
2023-02-05T13:48:17.106Z,61.30
2023-02-05T13:50:43.927Z,61.10
2023-02-05T13:53:30.113Z,60.40
2023-02-05T13:56:15.121Z,61.80
2023-02-05T13:58:51.436Z,64.00
2023-02-05T14:01:26.314Z,63.90
2023-02-05T14:03:58.391Z,63.50
2023-02-05T14:06:40.032Z,63.40
2023-02-05T14:09:17.310Z,63.50
2023-02-05T14:11:57.223Z,63.50
2023-02-05T14:14:24.117Z,63.50
2023-02-05T14:16:51.989Z,63.50
2023-02-05T14:19:25.506Z,64.20
2023-02-05T14:22:01.167Z,65.10
2023-02-05T14:24:44.485Z,65.60
2023-02-05T14:27:30.308Z,66.50
2023-02-05T14:30:18.025Z,66.90
2023-02-05T14:32:44.765Z,66.60
2023-02-05T14:35:33.782Z,66.60
2023-02-05T14:38:03.292Z,66.70
2023-02-05T14:40:37.224Z,66.20
2023-02-05T14:43:21.510Z,66.30
2023-02-05T14:45:51.569Z,67.00
2023-02-05T14:48:28.762Z,67.90
2023-02-05T14:51:31.822Z,69.50
2023-02-05T14:54:04.966Z,69.00
2023-02-05T14:56:43.770Z,68.40
2023-02-05T14:59:24.604Z,68.20
2023-02-05T15:01:54.415Z,69.00
2023-02-05T15:04:43.664Z,68.10
2023-02-05T15:07:24.417Z,69.00
2023-02-05T15:09:59.274Z,69.20
2023-02-05T15:12:38.961Z,68.80
2023-02-05T15:15:28.903Z,67.40
2023-02-05T15:18:16.528Z,68.50
2023-02-05T15:20:47.626Z,69.60
2023-02-05T15:23:27.665Z,69.60
2023-02-05T15:26:20.464Z,69.20
2023-02-05T15:29:12.358Z,69.40
2023-02-05T15:31:51.572Z,70.00
2023-02-05T15:34:21.590Z,70.00
2023-02-05T15:37:17.066Z,69.90
2023-02-05T15:40:09.097Z,70.10
2023-02-05T15:42:39.942Z,70.10
2023-02-05T15:45:40.174Z,70.50
2023-02-05T15:48:09.672Z,71.10
2023-02-05T15:50:44.916Z,71.70
2023-02-05T15:53:47.159Z,72.60
2023-02-05T15:56:20.949Z,74.50
2023-02-05T15:59:04.756Z,74.70
2023-02-05T16:01:47.892Z,74.40
2023-02-05T16:04:23.231Z,74.40
2023-02-05T16:06:50.452Z,75.10
2023-02-05T16:09:20.338Z,75.50
2023-02-05T16:11:48.465Z,75.50
2023-02-05T16:14:19.219Z,75.70
2023-02-05T16:16:58.399Z,75.60
2023-02-05T16:19:35.010Z,75.50
2023-02-05T16:22:25.001Z,75.60
2023-02-05T16:24:56.795Z,76.10
2023-02-05T16:27:35.656Z,76.60
2023-02-05T16:30:07.987Z,77.00
2023-02-05T16:32:44.363Z,77.50
2023-02-05T16:35:39.115Z,77.80
2023-02-05T16:38:18.297Z,77.60
2023-02-05T16:40:48.838Z,77.80
2023-02-05T16:43:30.257Z,77.70
2023-02-05T16:46:09.134Z,77.30
2023-02-05T16:48:46.991Z,77.20
2023-02-05T16:51:35.507Z,77.60
2023-02-05T16:54:11.235Z,77.90
2023-02-05T16:57:20.921Z,78.20
2023-02-05T16:59:52.177Z,78.70
2023-02-05T17:02:29.462Z,78.60
2023-02-05T17:04:58.056Z,78.90
2023-02-05T17:07:25.311Z,79.30
2023-02-05T17:09:52.377Z,79.30
2023-02-05T17:12:21.865Z,79.70
2023-02-05T17:14:59.302Z,80.90
2023-02-05T17:17:28.466Z,82.80
2023-02-05T17:20:17.056Z,83.70
2023-02-05T17:23:14.546Z,84.00
2023-02-05T17:25:55.320Z,84.20
2023-02-05T17:28:27.922Z,84.20
2023-02-05T17:30:58.534Z,84.00
2023-02-05T17:33:27.681Z,84.20
2023-02-05T17:35:54.691Z,84.30
2023-02-05T17:38:23.462Z,84.40
2023-02-05T17:41:10.657Z,85.00
2023-02-05T17:43:38.946Z,85.40
2023-02-05T17:46:12.000Z,85.30
2023-02-05T17:48:40.070Z,85.50
2023-02-05T17:51:07.025Z,85.80
2023-02-05T17:53:33.743Z,86.00
2023-02-05T17:56:02.009Z,86.10
2023-02-05T17:58:30.085Z,86.00
2023-02-05T18:00:56.878Z,86.00
2023-02-05T18:03:23.785Z,86.20
2023-02-05T18:05:50.659Z,86.30
2023-02-05T18:08:17.399Z,86.50
2023-02-05T18:10:44.949Z,86.50
2023-02-05T18:13:11.899Z,86.60
2023-02-05T18:15:38.729Z,86.50
2023-02-05T18:18:05.603Z,86.30
2023-02-05T18:20:32.584Z,86.80
2023-02-05T18:22:59.464Z,87.20
2023-02-05T18:25:26.655Z,87.30
2023-02-05T18:27:53.498Z,87.30
2023-02-05T18:30:20.381Z,86.90
2023-02-05T18:32:47.427Z,87.10
2023-02-05T18:35:14.763Z,87.40
2023-02-05T18:37:43.509Z,87.40
2023-02-05T18:40:11.780Z,87.60
2023-02-05T18:42:41.119Z,87.60
2023-02-05T18:45:08.845Z,87.80
2023-02-05T18:47:36.065Z,88.10
2023-02-05T18:50:03.072Z,88.10
2023-02-05T18:52:31.258Z,88.40
2023-02-05T18:54:57.979Z,88.00
2023-02-05T18:57:24.765Z,87.90
2023-02-05T18:59:51.498Z,87.80
2023-02-05T19:02:18.217Z,88.10
2023-02-05T19:04:45.605Z,88.50
2023-02-05T19:07:13.346Z,88.50
2023-02-05T19:09:40.144Z,88.10
2023-02-05T19:12:07.241Z,88.00
2023-02-05T19:14:34.373Z,88.50
2023-02-05T19:17:01.281Z,88.70
2023-02-05T19:19:31.030Z,88.80
2023-02-05T19:22:02.037Z,88.70
2023-02-05T19:24:29.827Z,89.00
2023-02-05T19:26:58.953Z,89.30
2023-02-05T19:29:26.304Z,88.70
2023-02-05T19:31:57.311Z,88.60
2023-02-05T19:34:24.651Z,88.90
2023-02-05T19:36:51.527Z,89.00
2023-02-05T19:39:18.604Z,89.10
2023-02-05T19:41:45.628Z,89.20
2023-02-05T19:44:12.763Z,89.20
2023-02-05T19:46:44.234Z,89.20
2023-02-05T19:49:17.634Z,89.50
2023-02-05T19:51:50.019Z,89.80
2023-02-05T19:54:20.593Z,90.00
2023-02-05T19:56:50.059Z,89.60
2023-02-05T19:59:17.770Z,89.50
2023-02-05T20:01:45.737Z,89.00
2023-02-05T20:04:17.440Z,89.60
2023-02-05T20:06:48.815Z,89.90
2023-02-05T20:09:17.579Z,90.10
2023-02-05T20:11:47.784Z,90.30
2023-02-05T20:14:16.914Z,90.40
2023-02-05T20:16:47.049Z,90.10
2023-02-05T20:19:15.723Z,90.10
2023-02-05T20:21:42.720Z,90.00
2023-02-05T20:24:09.793Z,90.10
2023-02-05T20:26:37.560Z,90.10
2023-02-05T20:29:24.147Z,90.40
2023-02-05T20:31:52.345Z,90.70
2023-02-05T20:34:25.903Z,90.80
2023-02-05T20:37:04.688Z,90.80
2023-02-05T20:39:34.742Z,90.50
2023-02-05T20:42:02.521Z,90.50
2023-02-05T20:44:36.355Z,90.60
2023-02-05T20:47:08.351Z,90.50
2023-02-05T20:49:36.580Z,90.50
2023-02-05T20:52:04.696Z,90.70
2023-02-05T20:54:31.512Z,90.70
2023-02-05T20:57:00.979Z,90.60
2023-02-05T20:59:31.443Z,90.60
2023-02-05T21:01:58.599Z,90.40
2023-02-05T21:04:25.969Z,90.30
2023-02-05T21:06:55.450Z,90.50
2023-02-05T21:09:22.976Z,90.50
2023-02-05T21:11:51.077Z,90.30
2023-02-05T21:14:17.939Z,90.60
2023-02-05T21:16:44.754Z,90.70
2023-02-05T21:19:12.339Z,90.80
2023-02-05T21:21:40.157Z,91.10
2023-02-05T21:24:09.488Z,91.10
2023-02-05T21:26:38.948Z,91.20
2023-02-05T21:29:11.500Z,91.10
2023-02-05T21:31:46.337Z,91.20
2023-02-05T21:34:16.186Z,91.00
2023-02-05T21:36:43.753Z,91.00
2023-02-05T21:39:12.187Z,91.00
2023-02-05T21:41:39.308Z,91.10
2023-02-05T21:44:06.351Z,90.90
2023-02-05T21:46:33.868Z,90.80
2023-02-05T21:49:01.352Z,90.80
2023-02-05T21:51:31.742Z,90.90
2023-02-05T21:54:00.214Z,90.90
2023-02-05T21:56:29.604Z,90.90
2023-02-05T21:58:57.319Z,90.50
2023-02-05T22:01:27.171Z,90.30
2023-02-05T22:03:56.867Z,90.40
2023-02-05T22:06:25.349Z,90.40
2023-02-05T22:08:55.084Z,90.50
2023-02-05T22:11:23.398Z,90.70
2023-02-05T22:13:51.749Z,90.80
2023-02-05T22:16:30.100Z,90.80
2023-02-05T22:18:58.196Z,91.10
2023-02-05T22:21:34.286Z,90.70
2023-02-05T22:24:02.547Z,90.80
2023-02-05T22:26:35.262Z,90.80
2023-02-05T22:29:04.484Z,91.30
2023-02-05T22:31:31.266Z,90.70
2023-02-05T22:33:58.595Z,90.70
2023-02-05T22:36:27.931Z,90.40
2023-02-05T22:38:55.715Z,90.10
2023-02-05T22:41:23.551Z,90.20
2023-02-05T22:43:50.921Z,90.30
2023-02-05T22:46:24.658Z,90.30
2023-02-05T22:48:52.672Z,90.70
2023-02-05T22:51:25.093Z,90.90
2023-02-05T22:53:55.608Z,90.80
2023-02-05T22:56:22.645Z,90.80
2023-02-05T22:58:50.989Z,90.30
2023-02-05T23:01:19.523Z,89.70
2023-02-05T23:03:49.082Z,89.60
2023-02-05T23:06:17.160Z,89.70
2023-02-05T23:08:48.347Z,90.10
2023-02-05T23:11:15.116Z,90.40
2023-02-05T23:13:42.102Z,90.90
2023-02-05T23:16:14.570Z,90.60
2023-02-05T23:18:43.080Z,90.50
2023-02-05T23:21:13.567Z,90.40
2023-02-05T23:23:40.709Z,90.30
2023-02-05T23:26:20.057Z,90.20
2023-02-05T23:28:48.056Z,90.10
2023-02-05T23:31:15.585Z,89.80
2023-02-05T23:33:42.740Z,89.80
2023-02-05T23:36:10.270Z,90.20
2023-02-05T23:38:37.759Z,89.70
2023-02-05T23:41:05.479Z,89.80
2023-02-05T23:43:36.964Z,89.80
2023-02-05T23:46:05.354Z,89.80
2023-02-05T23:48:32.577Z,89.80
2023-02-05T23:50:59.802Z,89.60
2023-02-05T23:53:26.988Z,89.70
2023-02-05T23:55:54.038Z,90.00
2023-02-05T23:58:23.858Z,89.90
